Time;durP1;ratioP1;P1;durP2;ratioP2;P2;SDS_P1;SDS_P2;PMS_P1;PMS_P2;Temp;Humidity;BMP_temperature;BMP_pressure;BME280_temperature;BME280_humidity;BME280_pressure;Samples;Min_cycle;Max_cycle;Signal;HPM_P1;HPM_P2
2023/10/11 00:02:56;;;;;;;8.30;5.43;;;;;;;22.70;60.14;97889.78;4998758;28;20609;-25
2023/10/11 00:06:07;;;;;;;6.87;5.80;;;;;;;22.70;60.05;97894.03;5012002;28;20198;-25
2023/10/11 00:08:40;;;;;;;6.63;5.83;;;;;;;22.68;59.86;97885.47;5008514;28;20220;-25
2023/10/11 00:11:07;;;;;;;8.23;5.80;;;;;;;22.67;59.61;97892.25;5011732;28;20336;-25
2023/10/11 00:13:35;;;;;;;6.47;5.53;;;;;;;22.66;59.48;97885.41;5008060;28;20637;-26
2023/10/11 00:16:08;;;;;;;8.10;5.97;;;;;;;22.66;59.12;97880.28;5010315;28;20728;-25
2023/10/11 00:18:36;;;;;;;6.70;5.63;;;;;;;22.66;59.39;97885.41;5004861;28;20197;-25
2023/10/11 00:21:10;;;;;;;9.43;6.00;;;;;;;22.66;59.14;97880.28;5000268;28;20219;-25
2023/10/11 00:23:41;;;;;;;10.20;6.40;;;;;;;22.67;59.32;97883.69;5002646;28;20243;-25
2023/10/11 00:26:08;;;;;;;7.97;5.73;;;;;;;22.66;58.96;97880.28;5014510;28;20225;-25
2023/10/11 00:28:37;;;;;;;8.50;6.00;;;;;;;22.66;59.52;97880.28;5011443;28;20205;-27
2023/10/11 00:31:04;;;;;;;7.77;5.70;;;;;;;22.66;58.94;97876.84;5008176;28;20450;-25
2023/10/11 00:33:32;;;;;;;7.13;5.57;;;;;;;22.68;59.17;97872.66;4999490;28;20218;-25
2023/10/11 00:36:05;;;;;;;8.57;5.47;;;;;;;22.65;59.18;97873.41;5011460;28;20704;-25
2023/10/11 00:38:32;;;;;;;9.33;5.57;;;;;;;22.67;59.36;97869.22;5018621;28;20622;-25
2023/10/11 00:43:37;;;;;;;8.93;5.53;;;;;;;22.67;59.60;97866.66;5009463;28;20201;-25
2023/10/11 00:46:10;;;;;;;5.67;4.83;;;;;;;22.66;59.39;97867.47;5005380;28;20226;-25
2023/10/11 00:48:46;;;;;;;6.43;5.10;;;;;;;22.64;59.03;97869.13;5009194;28;20209;-29
2023/10/11 00:51:14;;;;;;;7.67;5.77;;;;;;;22.65;58.72;97864.88;5013089;28;20249;-25
2023/10/11 00:53:40;;;;;;;7.73;5.77;;;;;;;22.64;58.70;97869.13;4994867;28;20555;-25
2023/10/11 00:56:07;;;;;;;7.17;5.10;;;;;;;22.64;58.58;97863.09;4995102;28;20221;-25
2023/10/11 00:58:38;;;;;;;7.63;5.27;;;;;;;22.64;58.39;97866.56;5016582;28;20241;-25
2023/10/11 01:01:08;;;;;;;7.20;5.70;;;;;;;22.63;58.28;97864.81;5003269;28;20257;-25
2023/10/11 01:03:36;;;;;;;7.00;5.70;;;;;;;22.64;58.39;97860.56;4973788;28;20206;-25
2023/10/11 01:06:04;;;;;;;7.00;5.50;;;;;;;22.65;58.13;97863.16;5004236;28;20226;-25
2023/10/11 01:08:38;;;;;;;7.37;5.60;;;;;;;22.64;58.23;97868.22;5010748;28;20680;-25
2023/10/11 01:11:14;;;;;;;10.63;6.10;;;;;;;22.64;58.32;97870.78;5007418;28;20600;-25
2023/10/11 01:13:42;;;;;;;7.83;5.57;;;;;;;22.64;58.23;97866.56;5017433;28;20209;-25
2023/10/11 01:16:14;;;;;;;9.20;6.63;;;;;;;22.64;58.55;97866.56;5004890;28;20219;-25
2023/10/11 01:18:42;;;;;;;6.43;5.53;;;;;;;22.65;58.78;97864.88;5010658;28;20199;-27
2023/10/11 01:21:10;;;;;;;8.27;5.80;;;;;;;22.65;58.89;97867.44;5018309;28;20209;-26
2023/10/11 01:23:36;;;;;;;7.67;5.57;;;;;;;22.62;58.57;97863.06;5007599;28;20202;-25
2023/10/11 01:26:07;;;;;;;7.30;5.23;;;;;;;22.63;58.54;97862.25;5003812;28;20257;-25
2023/10/11 01:28:37;;;;;;;6.33;5.17;;;;;;;22.62;58.22;97863.06;5009365;28;20202;-25
2023/10/11 01:31:08;;;;;;;7.20;5.47;;;;;;;22.62;58.08;97865.63;5010820;28;20221;-25
2023/10/11 01:33:42;;;;;;;7.03;5.50;;;;;;;22.61;58.00;97856.22;5005427;28;20225;-25
2023/10/11 01:36:11;;;;;;;10.27;6.00;;;;;;;22.62;57.80;97855.38;5005926;28;20225;-25
2023/10/11 01:38:46;;;;;;;7.60;5.60;;;;;;;22.61;57.85;97856.22;5012718;28;20238;-25
2023/10/11 01:41:26;;;;;;;8.10;6.10;;;;;;;22.60;57.32;97857.03;5010313;28;20230;-25
2023/10/11 01:43:54;;;;;;;9.10;5.70;;;;;;;22.62;57.64;97860.50;5016813;28;20285;-25
2023/10/11 01:46:27;;;;;;;7.47;5.63;;;;;;;22.62;57.24;97855.38;5009307;28;20225;-25
2023/10/11 01:48:55;;;;;;;8.93;6.00;;;;;;;22.61;57.44;97853.66;5010817;28;20692;-25
2023/10/11 01:51:28;;;;;;;7.27;5.87;;;;;;;22.62;57.54;97849.41;5000168;28;20699;-25
2023/10/11 01:54:01;;;;;;;7.53;5.53;;;;;;;22.63;57.29;97852.00;5007137;28;20202;-25
2023/10/11 01:56:28;;;;;;;8.30;6.00;;;;;;;22.63;57.64;97846.00;4997358;28;20250;-25
2023/10/11 01:59:01;;;;;;;6.87;5.83;;;;;;;22.63;57.72;97848.56;5012085;28;20201;-25
2023/10/11 02:01:30;;;;;;;8.50;5.67;;;;;;;22.63;57.88;97843.44;5020046;28;20194;-25
2023/10/11 02:03:59;;;;;;;7.53;5.70;;;;;;;22.61;57.75;97837.41;5016239;28;20206;-25
2023/10/11 02:06:33;;;;;;;10.03;6.37;;;;;;;22.61;57.52;97842.53;5017765;28;20784;-26
2023/10/11 02:09:00;;;;;;;8.57;5.60;;;;;;;22.61;57.23;97850.22;5007816;28;20198;-25
2023/10/11 02:11:29;;;;;;;6.87;5.00;;;;;;;22.60;57.10;97841.69;5014686;28;20229;-25
2023/10/11 02:14:00;;;;;;;6.70;5.30;;;;;;;22.61;56.94;97842.53;5001302;28;20286;-25
2023/10/11 02:16:28;;;;;;;11.27;5.63;;;;;;;22.60;56.91;97844.25;5001511;28;20219;-34
2023/10/11 02:19:01;;;;;;;7.27;5.20;;;;;;;22.60;56.90;97839.13;4998590;28;20197;-25
2023/10/11 02:21:29;;;;;;;6.70;5.53;;;;;;;22.60;56.84;97841.69;5010592;28;20723;-25
2023/10/11 02:23:57;;;;;;;7.97;5.63;;;;;;;22.60;56.83;97841.69;5010615;28;20654;-25
2023/10/11 02:26:28;;;;;;;9.80;5.50;;;;;;;22.60;56.78;97839.13;5009019;28;20226;-25
2023/10/11 02:28:55;;;;;;;6.50;5.47;;;;;;;22.61;56.65;97839.97;5008351;28;20575;-25
2023/10/11 02:31:24;;;;;;;7.83;5.93;;;;;;;22.62;56.77;97846.84;5005390;28;20214;-25
2023/10/11 02:33:51;;;;;;;7.70;5.67;;;;;;;22.62;56.80;97836.59;5010252;28;20204;-25
2023/10/11 02:36:18;;;;;;;8.50;5.90;;;;;;;22.62;56.84;97841.72;5004533;28;20214;-25
2023/10/11 02:38:50;;;;;;;8.07;5.47;;;;;;;22.60;56.98;97841.69;5011927;28;20214;-25
2023/10/11 02:41:21;;;;;;;8.87;5.63;;;;;;;22.61;56.69;97850.22;5003795;28;20733;-26
2023/10/11 02:43:49;;;;;;;7.33;5.33;;;;;;;22.61;56.74;97835.72;5005849;28;20206;-25
2023/10/11 02:46:16;;;;;;;6.40;5.27;;;;;;;22.59;56.38;97832.22;5010778;28;20217;-25
2023/10/11 02:48:46;;;;;;;7.97;5.50;;;;;;;22.60;56.29;97838.22;5015191;28;20208;-25
2023/10/11 02:51:15;;;;;;;11.27;6.23;;;;;;;22.58;56.07;97838.19;5003224;28;20223;-25
2023/10/11 02:53:45;;;;;;;7.37;5.70;;;;;;;22.59;55.87;97831.38;5016792;28;20197;-25
2023/10/11 02:56:14;;;;;;;6.87;5.77;;;;;;;22.59;55.99;97832.22;4994584;28;20247;-25
2023/10/11 02:58:40;;;;;;;7.20;5.17;;;;;;;22.59;55.94;97834.78;5008967;28;20210;-30
2023/10/11 03:01:22;;;;;;;6.57;4.93;;;;;;;22.59;55.92;97837.34;5011478;28;20260;-25
2023/10/11 03:03:49;;;;;;;7.97;5.90;;;;;;;22.59;55.85;97837.34;5007496;28;20234;-25
2023/10/11 03:06:18;;;;;;;6.70;5.17;;;;;;;22.59;55.76;97839.91;5014411;28;20329;-25
2023/10/11 03:08:45;;;;;;;7.53;5.50;;;;;;;22.59;56.22;97845.03;5013952;28;20212;-25
2023/10/11 03:11:18;;;;;;;9.90;5.70;;;;;;;22.60;55.90;97844.25;5002275;28;20219;-25
2023/10/11 03:13:44;;;;;;;10.00;5.93;;;;;;;22.59;56.02;97845.03;5008690;28;20202;-25
2023/10/11 03:16:13;;;;;;;6.30;5.10;;;;;;;22.59;56.26;97842.47;5010164;28;20245;-30
2023/10/11 03:18:41;;;;;;;7.50;5.40;;;;;;;22.59;56.33;97842.47;5013488;28;20210;-25
2023/10/11 03:21:21;;;;;;;7.73;5.73;;;;;;;22.60;56.42;97833.09;5010874;28;20205;-25
2023/10/11 03:23:54;;;;;;;7.80;5.50;;;;;;;22.58;56.35;97824.50;5012992;28;20616;-25
2023/10/11 03:29:03;;;;;;;10.63;6.03;;;;;;;22.58;56.24;97827.94;5012319;28;20205;-25
2023/10/11 03:31:33;;;;;;;8.33;5.83;;;;;;;22.58;56.22;97827.06;5004179;28;20675;-25
2023/10/11 03:34:01;;;;;;;7.07;5.53;;;;;;;22.58;55.92;97827.06;4998278;28;20699;-25
2023/10/11 03:36:32;;;;;;;7.87;5.70;;;;;;;22.58;56.01;97819.38;4992573;28;20227;-25
2023/10/11 03:39:08;;;;;;;6.47;5.47;;;;;;;22.58;55.85;97822.81;4994496;28;20218;-25
2023/10/11 03:41:45;;;;;;;7.10;5.07;;;;;;;22.57;55.79;97810.84;4994252;28;20209;-25
2023/10/11 03:44:17;;;;;;;6.00;5.40;;;;;;;22.60;55.98;97817.75;4994506;28;20243;-27
2023/10/11 03:46:47;;;;;;;7.17;5.20;;;;;;;22.59;55.91;97810.88;4995636;28;20320;-30
2023/10/11 03:49:36;;;;;;;6.07;4.97;;;;;;;22.59;55.88;97811.72;4993619;28;20210;-25
2023/10/11 03:52:01;;;;;;;8.00;5.50;;;;;;;22.60;56.02;97807.50;4991785;28;20230;-27
2023/10/11 03:54:29;;;;;;;9.67;5.80;;;;;;;22.59;56.04;97806.63;4993609;28;20210;-27
2023/10/11 03:56:56;;;;;;;8.83;5.70;;;;;;;22.59;55.94;97811.72;4996901;28;20665;-25
2023/10/11 03:59:26;;;;;;;7.43;5.67;;;;;;;22.59;55.97;97813.44;4997480;28;20317;-30
2023/10/11 04:01:53;;;;;;;7.13;5.60;;;;;;;22.58;56.05;97812.56;4992982;28;20222;-28
2023/10/11 04:04:22;;;;;;;6.30;5.10;;;;;;;22.59;55.88;97810.88;4997666;28;20207;-27
2023/10/11 04:06:57;;;;;;;6.90;5.67;;;;;;;22.60;55.92;97817.75;4993854;28;20321;-27
2023/10/11 04:12:24;;;;;;;6.43;5.20;;;;;;;22.60;55.64;97816.06;4987087;28;20258;-25
2023/10/11 04:14:51;;;;;;;6.17;5.23;;;;;;;22.60;55.82;97813.50;5007235;28;20234;-25
2023/10/11 04:19:49;;;;;;;6.70;5.57;;;;;;;22.60;55.93;97803.25;5007627;28;20631;-27
2023/10/11 04:22:18;;;;;;;9.27;6.00;;;;;;;22.60;55.94;97810.94;5010228;28;20230;-27
2023/10/11 04:24:48;;;;;;;7.70;5.90;;;;;;;22.61;55.96;97812.66;5003370;28;20320;-28
2023/10/11 04:29:50;;;;;;;8.20;5.33;;;;;;;22.62;55.30;97821.22;5002579;28;20218;-25
2023/10/11 04:32:40;;;;;;;9.13;5.30;;;;;;;22.61;55.51;97815.22;5008113;28;20214;-25
2023/10/11 04:35:21;;;;;;;8.07;5.53;;;;;;;22.60;55.61;97812.63;5003203;28;20202;-30
2023/10/11 04:37:54;;;;;;;8.03;5.30;;;;;;;22.60;55.59;97813.50;4997979;28;20226;-34
2023/10/11 04:43:05;;;;;;;10.37;5.77;;;;;;;22.58;53.66;97820.25;5007228;28;20214;-25
2023/10/11 04:45:44;;;;;;;9.00;5.70;;;;;;;22.59;53.20;97827.09;5001272;28;20291;-30
2023/10/11 04:48:29;;;;;;;7.47;5.53;;;;;;;22.59;53.35;97824.53;5005592;28;20203;-28
2023/10/11 04:51:45;;;;;;;9.17;5.97;;;;;;;22.59;53.53;97831.38;5004753;28;20591;-25
2023/10/11 04:54:13;;;;;;;9.63;5.70;;;;;;;22.59;53.61;97831.38;4996116;28;20325;-25
2023/10/11 04:59:36;;;;;;;9.00;5.83;;;;;;;22.59;53.27;97826.25;5008606;28;20217;-25
2023/10/11 05:02:32;;;;;;;12.00;5.93;;;;;;;22.59;52.61;97827.09;5013221;28;20231;-25
2023/10/11 05:04:53;;;;;;;7.97;5.90;;;;;;;22.58;51.60;97824.50;5000552;28;20206;-25
2023/10/11 05:07:21;;;;;;;9.80;6.00;;;;;;;22.58;51.47;97821.94;5018569;22;20218;-25
2023/10/11 05:09:59;;;;;;;12.53;6.30;;;;;;;22.59;51.95;97826.25;5011446;28;20672;-25
2023/10/11 05:12:26;;;;;;;9.60;6.47;;;;;;;22.58;52.24;97827.94;5005133;28;20645;-23
2023/10/11 05:20:20;;;;;;;13.40;7.10;;;;;;;22.57;50.17;97823.66;5007753;28;20281;-25
2023/10/11 05:22:49;;;;;;;10.27;6.63;;;;;;;22.56;49.77;97832.13;5008551;28;20222;-26
2023/10/11 05:27:56;;;;;;;10.87;6.53;;;;;;;22.49;48.41;97835.31;5010238;28;20233;-25
2023/10/11 05:52:15;;;;;;;7.83;5.50;;;;;;;22.23;47.98;97856.69;5011028;28;20227;-25
2023/10/11 05:54:42;;;;;;;11.30;5.63;;;;;;;22.23;48.07;97858.38;5009354;28;20210;-25
2023/10/11 05:57:09;;;;;;;9.73;5.33;;;;;;;22.23;48.60;97864.34;5000376;28;20788;-26
2023/10/11 05:59:36;;;;;;;8.40;5.60;;;;;;;22.23;48.95;97861.78;5001464;28;20681;-25
2023/10/11 06:02:25;;;;;;;6.33;4.70;;;;;;;22.23;49.49;97861.78;5007575;28;20194;-25
2023/10/11 06:04:50;;;;;;;10.00;5.60;;;;;;;22.03;49.36;97831.28;5007979;28;20210;-25
2023/10/11 06:07:19;;;;;;;9.73;5.60;;;;;;;22.22;49.45;97862.63;5007849;28;20253;-25
2023/10/11 06:09:46;;;;;;;10.10;6.20;;;;;;;22.22;49.41;97867.75;5014616;28;20225;-25
2023/10/11 06:12:22;;;;;;;14.27;6.20;;;;;;;22.22;49.73;97860.06;5009288;28;20256;-25
2023/10/11 06:14:53;;;;;;;17.03;6.73;;;;;;;22.23;49.98;97864.34;5009218;28;20201;-26
2023/10/11 06:22:51;;;;;;;12.17;6.97;;;;;;;22.23;50.18;97871.19;4993877;28;20257;-25
2023/10/11 06:25:23;;;;;;;27.43;7.40;;;;;;;22.23;50.67;97874.59;4993948;28;20782;-25
2023/10/11 06:28:09;;;;;;;14.90;6.73;;;;;;;22.24;50.90;97875.47;4995145;28;20293;-26
2023/10/11 06:30:36;;;;;;;12.73;6.80;;;;;;;22.25;51.26;97879.78;4995526;28;20268;-26
2023/10/11 06:33:06;;;;;;;13.30;7.03;;;;;;;22.25;51.42;97874.66;4992115;28;20245;-23
2023/10/11 06:35:43;;;;;;;14.07;6.50;;;;;;;22.27;51.77;97876.47;4994284;28;20745;-25
2023/10/11 06:41:50;;;;;;;12.20;6.10;;;;;;;22.28;52.08;97872.19;4991451;28;20205;-25
2023/10/11 06:44:18;;;;;;;13.20;6.50;;;;;;;22.29;52.09;97874.78;4995580;28;20206;-24
2023/10/11 06:46:47;;;;;;;9.70;6.13;;;;;;;22.30;52.01;97874.00;4994057;28;20234;-25
2023/10/11 06:49:14;;;;;;;14.73;6.10;;;;;;;22.32;52.22;97874.03;4992751;28;20275;-25
2023/10/11 06:51:41;;;;;;;8.70;5.80;;;;;;;22.32;52.44;97874.88;4993202;28;20227;-25
2023/10/11 06:54:08;;;;;;;10.97;6.07;;;;;;;22.33;52.32;97878.34;4994088;28;20202;-25
2023/10/11 06:56:38;;;;;;;10.60;6.67;;;;;;;22.08;52.35;97832.31;4994498;28;20207;-25
2023/10/11 06:59:05;;;;;;;12.83;6.20;;;;;;;22.33;52.72;97871.53;4992752;28;20261;-24
2023/10/11 07:01:35;;;;;;;17.13;7.80;;;;;;;22.35;52.57;97879.25;4994433;28;20256;-23
2023/10/11 07:04:02;;;;;;;9.57;6.23;;;;;;;22.35;52.90;97874.13;4994492;28;20253;-25
2023/10/11 07:06:29;;;;;;;10.30;6.40;;;;;;;22.35;52.98;97876.69;4992512;28;20799;-25
2023/10/11 07:08:58;;;;;;;10.77;6.10;;;;;;;22.36;53.05;97869.06;4994739;28;20222;-24
2023/10/11 07:11:49;;;;;;;9.77;6.00;;;;;;;22.36;53.24;97874.19;4991759;28;20219;-25
2023/10/11 07:14:16;;;;;;;11.03;6.20;;;;;;;22.37;53.27;97870.78;5001947;28;20206;-23
2023/10/11 07:16:44;;;;;;;10.73;6.20;;;;;;;22.39;53.44;97876.84;5006188;28;20602;-25
2023/10/11 07:19:11;;;;;;;8.67;5.87;;;;;;;22.31;53.40;97857.81;5011103;28;20575;-25
2023/10/11 07:21:48;;;;;;;12.10;6.37;;;;;;;22.40;53.38;97873.44;4990338;28;20199;-25
2023/10/11 07:24:31;;;;;;;10.17;6.27;;;;;;;22.40;53.42;97883.69;5006979;28;20210;-25
2023/10/11 07:27:08;;;;;;;16.50;6.53;;;;;;;22.41;53.60;97880.31;5007334;28;20241;-25
2023/10/11 07:29:36;;;;;;;11.23;6.23;;;;;;;22.40;53.55;97878.56;5007644;28;20202;-25
2023/10/11 07:32:04;;;;;;;9.07;6.07;;;;;;;22.41;53.84;97875.19;5007650;28;20728;-25
2023/10/11 07:34:31;;;;;;;11.57;5.90;;;;;;;22.40;53.73;97883.69;5009969;28;20720;-24
2023/10/11 07:36:59;;;;;;;8.97;5.83;;;;;;;22.42;53.82;97886.31;5007500;28;20226;-25
2023/10/11 07:39:25;;;;;;;9.30;5.80;;;;;;;22.42;53.94;97883.75;5007121;28;20245;-25
2023/10/11 07:42:07;;;;;;;11.87;6.33;;;;;;;22.42;54.00;97886.31;5007130;28;20581;-25
2023/10/11 07:44:36;;;;;;;9.40;5.90;;;;;;;22.42;53.48;97882.06;5007103;28;20202;-25
2023/10/11 07:47:08;;;;;;;10.07;6.30;;;;;;;22.42;53.69;97879.50;5004490;28;20670;-25
2023/10/11 07:49:41;;;;;;;9.33;6.50;;;;;;;22.43;53.99;97880.34;5010099;28;20297;-25
2023/10/11 07:52:13;;;;;;;8.93;5.73;;;;;;;22.44;54.08;97877.84;5009716;28;20264;-25
2023/10/11 07:54:40;;;;;;;9.30;5.77;;;;;;;22.45;54.29;97874.47;4998348;28;20206;-25
2023/10/11 07:57:14;;;;;;;9.67;6.03;;;;;;;22.45;54.22;97871.91;5000074;28;20232;-25
2023/10/11 07:59:44;;;;;;;8.43;5.77;;;;;;;22.46;54.35;97878.75;4998033;28;20210;-25
2023/10/11 08:02:26;;;;;;;9.30;5.93;;;;;;;22.48;54.51;97871.13;4996710;28;20388;-25
2023/10/11 08:04:54;;;;;;;10.50;5.57;;;;;;;22.49;54.57;97867.72;4998178;28;20260;-24
2023/10/11 08:07:22;;;;;;;9.93;5.30;;;;;;;22.48;54.79;97874.56;4996782;28;20272;-26
2023/10/11 08:09:52;;;;;;;8.53;5.70;;;;;;;22.49;54.71;97871.19;4996802;28;20258;-25
2023/10/11 08:12:23;;;;;;;8.47;5.13;;;;;;;22.49;54.95;97871.19;4993865;28;20928;-26
2023/10/11 08:14:53;;;;;;;9.50;5.20;;;;;;;22.50;54.95;97867.81;4998164;28;20221;-25
2023/10/11 08:17:21;;;;;;;10.97;6.10;;;;;;;22.52;55.01;97863.63;4995993;28;20335;-24
2023/10/11 08:19:53;;;;;;;9.80;5.50;;;;;;;22.52;55.11;97866.19;4997153;28;20210;-25
2023/10/11 08:22:22;;;;;;;6.57;5.10;;;;;;;22.53;55.17;97859.38;4996274;28;20198;-25
2023/10/11 08:24:49;;;;;;;8.20;4.90;;;;;;;22.53;55.15;97872.19;4997320;28;20219;-25
2023/10/11 08:27:27;;;;;;;8.23;5.67;;;;;;;22.44;55.06;97857.34;4997481;28;20717;-25
2023/10/11 08:30:06;;;;;;;9.67;5.50;;;;;;;22.53;55.22;97867.91;4998159;28;21244;-25
2023/10/11 08:32:33;;;;;;;8.43;5.33;;;;;;;22.53;55.32;97862.78;4983085;28;20222;-25
2023/10/11 08:35:00;;;;;;;6.80;4.87;;;;;;;22.54;55.30;97856.84;4999824;28;20217;-25
2023/10/11 08:37:28;;;;;;;7.90;5.07;;;;;;;22.52;55.17;97849.94;4996724;28;20719;-24
2023/10/11 08:39:55;;;;;;;7.80;5.23;;;;;;;22.55;55.40;97856.03;4995364;28;20260;-24
2023/10/11 08:42:22;;;;;;;7.13;5.03;;;;;;;22.56;55.62;97849.22;4997072;28;20301;-23
2023/10/11 08:44:49;;;;;;;8.43;5.33;;;;;;;22.55;55.58;97839.78;4994511;28;20354;-24
2023/10/11 08:47:19;;;;;;;7.33;5.10;;;;;;;22.56;55.62;97847.50;4964773;28;20330;-26
2023/10/11 08:49:48;;;;;;;5.67;4.63;;;;;;;22.58;55.62;97842.44;4994959;28;20281;-24
2023/10/11 08:52:21;;;;;;;6.13;4.40;;;;;;;22.58;55.81;97839.88;4978803;28;20226;-24
2023/10/11 08:54:48;;;;;;;6.17;4.63;;;;;;;22.57;55.75;97844.16;4998051;28;20234;-26
2023/10/11 08:57:25;;;;;;;6.63;4.90;;;;;;;22.58;55.78;97842.44;4995182;28;20288;-25
2023/10/11 08:59:58;;;;;;;8.00;5.50;;;;;;;22.57;55.85;97843.25;4995511;28;20320;-23
2023/10/11 09:02:26;;;;;;;5.93;5.10;;;;;;;22.57;55.92;97848.38;4992984;28;20230;-25
2023/10/11 09:05:00;;;;;;;6.67;5.03;;;;;;;22.57;55.84;97840.69;4995794;28;20518;-24
2023/10/11 09:07:45;;;;;;;7.57;5.13;;;;;;;22.58;55.79;97850.13;4994387;28;20278;-24
2023/10/11 09:10:25;;;;;;;6.53;5.03;;;;;;;22.58;55.70;97840.75;4997807;28;20210;-23
2023/10/11 09:12:56;;;;;;;5.67;5.00;;;;;;;22.56;56.08;97838.97;4996959;28;20222;-25
2023/10/11 09:15:53;;;;;;;7.83;4.80;;;;;;;22.58;55.99;97835.63;4998295;28;20329;-26
2023/10/11 09:18:20;;;;;;;5.87;4.60;;;;;;;22.55;55.94;97834.66;4998473;28;20229;-24
2023/10/11 09:20:55;;;;;;;7.23;4.90;;;;;;;22.59;56.02;97832.22;4999059;28;20592;-23
2023/10/11 09:23:39;;;;;;;7.43;4.90;;;;;;;22.58;56.26;97830.50;5000762;28;20205;-25
2023/10/11 09:26:05;;;;;;;5.40;4.20;;;;;;;22.59;56.12;97832.22;4992516;28;20210;-26
2023/10/11 09:28:40;;;;;;;7.53;5.00;;;;;;;22.39;56.01;97796.56;4995497;28;20230;-25
2023/10/11 09:31:10;;;;;;;4.97;4.27;;;;;;;22.60;56.20;97830.56;4995378;28;20305;-24
2023/10/11 09:33:40;;;;;;;9.90;4.73;;;;;;;22.24;56.25;97768.81;4996624;28;20675;-24
2023/10/11 09:36:08;;;;;;;5.73;4.53;;;;;;;22.51;56.27;97813.22;4996551;28;20202;-25
2023/10/11 09:38:41;;;;;;;6.43;4.67;;;;;;;22.60;56.24;97831.44;4993836;28;20215;-24
2023/10/11 09:41:08;;;;;;;5.83;4.80;;;;;;;22.60;56.20;97833.09;4993942;28;20206;-25
2023/10/11 09:43:42;;;;;;;6.17;4.73;;;;;;;22.59;56.29;97827.09;4994426;28;20285;-25
2023/10/11 09:46:13;;;;;;;6.33;4.77;;;;;;;22.59;56.32;97831.38;4996346;28;20212;-25
2023/10/11 09:48:40;;;;;;;4.80;4.07;;;;;;;22.60;56.32;97831.44;4996104;28;20767;-23
2023/10/11 09:51:13;;;;;;;6.53;4.50;;;;;;;22.60;56.40;97822.88;4992282;28;20456;-22
2023/10/11 09:54:27;;;;;;;6.23;4.60;;;;;;;22.59;56.37;97814.31;4994610;28;20238;-24
2023/10/11 09:56:50;;;;;;;5.40;4.00;;;;;;;22.62;56.48;97823.78;4987931;28;20673;-25
2023/10/11 09:59:41;;;;;;;4.97;4.23;;;;;;;22.62;56.49;97819.50;4994267;28;20689;-25
2023/10/11 10:02:22;;;;;;;5.97;4.53;;;;;;;22.62;56.47;97821.22;4996330;28;20344;-24
2023/10/11 10:04:51;;;;;;;5.53;4.10;;;;;;;22.62;56.54;97806.69;4976492;28;20293;-25
2023/10/11 10:07:21;;;;;;;4.87;4.37;;;;;;;22.63;56.54;97812.72;4996317;28;20266;-25
2023/10/11 10:09:52;;;;;;;5.00;4.10;;;;;;;22.63;56.67;97807.59;4993486;28;20214;-25
2023/10/11 10:12:22;;;;;;;6.83;4.23;;;;;;;22.63;56.65;97807.59;4995335;28;20226;-23
2023/10/11 10:14:50;;;;;;;4.50;4.00;;;;;;;22.63;56.55;97799.91;4992521;28;20591;-25
2023/10/11 10:17:18;;;;;;;4.67;3.93;;;;;;;22.65;56.67;97804.22;4996308;28;20314;-22
2023/10/11 10:19:46;;;;;;;4.47;3.90;;;;;;;22.65;56.68;97800.81;4990774;28;20678;-25
2023/10/11 10:22:16;;;;;;;5.00;3.93;;;;;;;22.63;56.69;97802.47;4995370;28;20202;-24
2023/10/11 10:24:44;;;;;;;5.60;4.40;;;;;;;22.65;56.59;97811.91;4997632;28;20206;-24
2023/10/11 10:27:23;;;;;;;4.73;3.80;;;;;;;22.66;56.80;97810.22;4998704;28;20226;-24
2023/10/11 10:29:59;;;;;;;6.20;4.00;;;;;;;22.65;56.75;97808.50;4992302;28;20225;-25
2023/10/11 10:32:27;;;;;;;4.40;3.93;;;;;;;22.68;56.83;97806.03;4995160;28;20238;-25
2023/10/11 10:35:18;;;;;;;5.37;4.13;;;;;;;22.67;56.87;97806.84;4980075;28;20829;-25
2023/10/11 10:37:55;;;;;;;6.00;4.50;;;;;;;22.67;56.93;97812.84;4992503;28;20258;-25
2023/10/11 10:40:25;;;;;;;4.93;3.93;;;;;;;22.66;56.91;97802.53;5009028;28;20194;-24
2023/10/11 10:43:19;;;;;;;5.43;4.20;;;;;;;22.67;56.85;97799.16;5007919;28;20556;-25
2023/10/11 10:45:48;;;;;;;6.60;4.30;;;;;;;22.64;56.95;97784.56;5007325;28;20641;-25
2023/10/11 10:48:25;;;;;;;7.33;4.87;;;;;;;22.65;56.93;97788.84;5008422;28;20705;-25
2023/10/11 10:51:07;;;;;;;4.93;4.37;;;;;;;22.65;56.97;97790.56;5009685;28;20239;-24
2023/10/11 10:53:42;;;;;;;5.37;3.93;;;;;;;22.62;56.99;97777.69;5007921;28;20226;-24
2023/10/11 10:56:24;;;;;;;5.10;3.93;;;;;;;22.65;57.00;97776.03;5006973;28;20202;-26
2023/10/11 10:59:11;;;;;;;5.83;4.33;;;;;;;22.65;57.06;97777.75;5008707;28;20254;-22
2023/10/11 11:01:38;;;;;;;5.67;4.23;;;;;;;22.65;57.05;97775.19;5007292;28;20556;-26
2023/10/11 11:04:07;;;;;;;8.57;4.73;;;;;;;22.66;57.51;97766.69;5013179;28;20541;-24
2023/10/11 11:06:40;;;;;;;8.53;4.30;;;;;;;22.70;57.42;97771.94;5009113;28;20206;-25
2023/10/11 11:09:14;;;;;;;5.73;4.27;;;;;;;22.71;56.21;97765.13;5029407;23;20233;-25
2023/10/11 11:11:41;;;;;;;7.10;4.60;;;;;;;22.70;56.10;97759.13;4995816;28;20308;-32
2023/10/11 11:14:15;;;;;;;7.43;4.00;;;;;;;22.70;56.73;97759.13;4995217;28;20226;-35
2023/10/11 11:16:44;;;;;;;6.53;4.07;;;;;;;22.64;56.89;97742.69;4994345;28;20347;-28
2023/10/11 11:19:16;;;;;;;7.83;4.50;;;;;;;22.70;57.02;97748.88;5002141;28;20222;-26
2023/10/11 11:21:46;;;;;;;7.33;4.30;;;;;;;22.71;57.06;97747.19;4994911;28;20210;-25
2023/10/11 11:24:27;;;;;;;6.10;4.30;;;;;;;22.70;57.04;97746.31;4997214;28;20234;-26
2023/10/11 11:26:54;;;;;;;8.50;4.83;;;;;;;22.70;57.05;97737.75;4996768;28;20206;-25
2023/10/11 11:29:31;;;;;;;5.60;4.50;;;;;;;22.70;57.17;97735.19;4996639;28;20717;-25
2023/10/11 11:32:14;;;;;;;7.83;4.10;;;;;;;22.69;57.14;97733.47;4994350;28;20203;-27
2023/10/11 11:35:02;;;;;;;6.33;4.07;;;;;;;22.68;57.30;97731.75;4996465;28;20233;-25
2023/10/11 11:37:30;;;;;;;5.67;3.97;;;;;;;22.68;57.22;97724.91;4995747;28;20237;-26
2023/10/11 11:40:19;;;;;;;6.67;4.37;;;;;;;22.70;57.31;97724.94;4996037;28;20207;-25
2023/10/11 11:42:47;;;;;;;7.27;4.33;;;;;;;22.66;57.53;97721.44;4997313;28;20218;-26
2023/10/11 11:45:15;;;;;;;6.30;4.13;;;;;;;22.68;57.40;97713.81;4995673;28;20386;-27
2023/10/11 11:47:55;;;;;;;4.40;3.80;;;;;;;22.67;57.25;97719.72;4992387;28;20344;-34
2023/10/11 11:50:30;;;;;;;6.63;4.27;;;;;;;22.66;57.45;97707.75;4994783;28;20202;-28
2023/10/11 11:52:57;;;;;;;5.17;4.10;;;;;;;22.67;57.51;97702.69;4998192;28;20326;-30
2023/10/11 11:55:24;;;;;;;6.83;4.20;;;;;;;22.66;57.56;97702.63;4994574;28;20281;-25
2023/10/11 11:57:55;;;;;;;7.00;4.10;;;;;;;22.66;57.54;97700.94;4996637;28;20238;-25
2023/10/11 12:03:04;;;;;;;4.87;3.60;;;;;;;22.66;57.53;97694.94;4979372;28;20624;-32
2023/10/11 12:05:41;;;;;;;7.10;4.13;;;;;;;22.67;57.62;97689.88;4994837;28;20206;-25
2023/10/11 12:08:12;;;;;;;7.13;4.00;;;;;;;22.66;57.60;97692.38;4996486;28;20324;-25
2023/10/11 12:10:38;;;;;;;7.20;4.30;;;;;;;22.67;57.66;97695.00;4996909;28;20742;-25
2023/10/11 12:13:08;;;;;;;5.90;3.30;;;;;;;22.67;57.68;97686.41;4999171;28;20227;-25
2023/10/11 12:15:35;;;;;;;5.33;4.13;;;;;;;22.68;57.75;97688.19;4997362;28;20213;-25
2023/10/11 12:18:05;;;;;;;5.80;4.20;;;;;;;22.67;57.79;97679.63;4996248;28;20233;-28
2023/10/11 12:20:36;;;;;;;7.37;4.40;;;;;;;22.63;57.65;97675.25;4997377;28;20210;-27
2023/10/11 12:23:09;;;;;;;7.17;4.20;;;;;;;22.68;57.75;97683.06;4976429;28;20205;-25
2023/10/11 12:25:36;;;;;;;6.30;4.20;;;;;;;22.66;57.83;97675.34;4992778;28;22968;-30
2023/10/11 12:28:04;;;;;;;5.53;4.00;;;;;;;22.67;57.74;97676.19;4994209;28;20798;-25
2023/10/11 12:30:33;;;;;;;6.20;4.17;;;;;;;22.66;57.75;97684.69;4992404;28;20797;-25
2023/10/11 12:33:07;;;;;;;5.93;3.63;;;;;;;22.65;57.70;97672.72;4995931;28;20276;-25
2023/10/11 12:35:36;;;;;;;5.40;4.17;;;;;;;22.65;57.78;97678.69;4997475;28;20337;-25
2023/10/11 12:38:03;;;;;;;4.90;3.67;;;;;;;22.62;57.77;97672.66;4995050;28;20237;-26
2023/10/11 12:40:34;;;;;;;5.87;3.80;;;;;;;22.65;57.86;97675.28;4979653;28;20302;-25
2023/10/11 12:43:02;;;;;;;5.50;4.07;;;;;;;22.64;57.94;97670.97;4996187;28;20207;-32
2023/10/11 12:45:30;;;;;;;5.17;3.53;;;;;;;22.65;57.63;97667.59;4993636;28;20606;-27
2023/10/11 12:47:57;;;;;;;4.70;3.30;;;;;;;22.66;57.87;97674.44;4995302;28;20321;-25
2023/10/11 12:50:24;;;;;;;4.90;3.57;;;;;;;22.65;57.88;97667.59;4993772;28;20701;-25
2023/10/11 12:52:52;;;;;;;4.53;3.40;;;;;;;22.65;58.11;97671.00;4995713;28;20215;-27
2023/10/11 12:55:20;;;;;;;4.03;3.40;;;;;;;22.66;58.00;97664.22;4995908;28;20227;-25